Orbital elements of ERS 1 DEB
| Launched | 16 July 1991 |
| Flight ended | – |
| Launch site | Europe's Spaceport, Kourou, French Guiana |
| Owner | European Space Agency |
| NORAD ID | 35260 |
| Date fetched |
Epoch osculation |
Inc. [°] |
Ecc. | RA asc node [hr] |
Arg Peri. [°] |
Mean anom [°] |
Mean motion [rev/day] |
Abs. mag |
| Date fetched |
Epoch osculation |
Inc. [°] |
Ecc. | RA asc node [hr] |
Arg Peri. [°] |
Mean anom [°] |
Mean motion [rev/day] |
Abs. mag |
| 2026 May 04 17:57 | 2026 Apr 30 14:05:53 | 98.5363 | 0.00239 | 11.0669 | 114.7664 | 39.1327 | 14.58912 | – |
| 2026 May 03 17:57 | 2026 Apr 30 14:05:53 | 98.5363 | 0.00239 | 11.0669 | 114.7664 | 39.1327 | 14.58912 | – |
| 2026 May 02 17:57 | 2026 Apr 30 14:05:53 | 98.5363 | 0.00239 | 11.0669 | 114.7664 | 39.1327 | 14.58912 | – |
| 2026 May 01 17:56 | 2026 Apr 30 14:05:53 | 98.5363 | 0.00239 | 11.0669 | 114.7664 | 39.1327 | 14.58912 | – |
| 2026 Apr 30 17:56 | 2026 Apr 30 14:05:53 | 98.5363 | 0.00239 | 11.0669 | 114.7664 | 39.1327 | 14.58912 | – |
| 2026 Apr 29 17:57 | 2026 Apr 24 02:46:52 | 98.5371 | 0.00238 | 10.6235 | 133.3022 | 39.1327 | 14.58912 | – |
| 2026 Apr 28 17:56 | 2026 Apr 24 02:46:52 | 98.5371 | 0.00238 | 10.6235 | 133.3022 | 39.1327 | 14.58912 | – |
| 2026 Apr 27 17:58 | 2026 Apr 24 02:46:52 | 98.5371 | 0.00238 | 10.6235 | 133.3022 | 39.1327 | 14.58912 | – |
| 2026 Apr 26 17:58 | 2026 Apr 24 02:46:52 | 98.5371 | 0.00238 | 10.6235 | 133.3022 | 39.1327 | 14.58912 | – |
| 2026 Apr 25 17:58 | 2026 Apr 24 02:46:52 | 98.5371 | 0.00238 | 10.6235 | 133.3022 | 39.1327 | 14.58912 | – |
| 2026 Apr 24 17:59 | 2026 Apr 24 02:46:52 | 98.5371 | 0.00238 | 10.6235 | 133.3022 | 39.1327 | 14.58912 | – |
| 2026 Apr 23 17:57 | 2026 Apr 19 02:37:18 | 98.5380 | 0.00236 | 10.2805 | 148.0572 | 39.1327 | 14.58912 | – |
| 2026 Apr 22 17:57 | 2026 Apr 19 02:37:18 | 98.5380 | 0.00236 | 10.2805 | 148.0572 | 39.1327 | 14.58912 | – |
| 2026 Apr 21 17:57 | 2026 Apr 19 02:37:18 | 98.5380 | 0.00236 | 10.2805 | 148.0572 | 39.1327 | 14.58912 | – |
| 2026 Apr 20 17:57 | 2026 Apr 19 02:37:18 | 98.5380 | 0.00236 | 10.2805 | 148.0572 | 39.1327 | 14.58912 | – |
| 2026 Apr 19 17:58 | 2026 Apr 19 02:37:18 | 98.5380 | 0.00236 | 10.2805 | 148.0572 | 39.1327 | 14.58912 | – |
| 2026 Apr 18 17:56 | 2026 Apr 13 01:47:04 | 98.5388 | 0.00232 | 9.8670 | 166.0070 | 39.1327 | 14.58912 | – |
| 2026 Apr 16 17:57 | 2026 Apr 13 01:47:04 | 98.5388 | 0.00232 | 9.8670 | 166.0070 | 39.1327 | 14.58912 | – |
| 2026 Apr 14 17:57 | 2026 Apr 13 01:47:04 | 98.5388 | 0.00232 | 9.8670 | 166.0070 | 39.1327 | 14.58912 | – |
| 2026 Apr 13 17:57 | 2026 Apr 13 01:47:04 | 98.5388 | 0.00232 | 9.8670 | 166.0070 | 39.1327 | 14.58912 | – |
| 2026 Apr 12 17:57 | 2026 Apr 08 15:13:58 | 98.5388 | 0.00229 | 9.5627 | 179.2078 | 39.1327 | 14.58912 | – |
| 2026 Apr 11 17:57 | 2026 Apr 08 15:13:58 | 98.5388 | 0.00229 | 9.5627 | 179.2078 | 39.1327 | 14.58912 | – |
| 2026 Apr 10 17:58 | 2026 Apr 08 15:13:58 | 98.5388 | 0.00229 | 9.5627 | 179.2078 | 39.1327 | 14.58912 | – |
| 2026 Apr 09 18:01 | 2026 Apr 08 15:13:58 | 98.5388 | 0.00229 | 9.5627 | 179.2078 | 39.1327 | 14.58912 | – |
| 2026 Apr 08 17:57 | 2026 Apr 08 15:13:58 | 98.5388 | 0.00229 | 9.5627 | 179.2078 | 39.1327 | 14.58912 | – |
| 2026 Apr 07 17:57 | 2026 Apr 02 02:23:29 | 98.5405 | 0.00225 | 9.1149 | 199.2310 | 39.1327 | 14.58912 | – |